createdAt,value
2022-08-07T00:00:25.724Z,23.29
2022-08-07T00:02:53.925Z,23.09
2022-08-07T00:05:23.633Z,23.25
2022-08-07T00:08:00.351Z,23.62
2022-08-07T00:10:31.212Z,23.50
2022-08-07T00:13:02.307Z,23.56
2022-08-07T00:15:35.882Z,23.32
2022-08-07T00:18:05.590Z,23.51
2022-08-07T00:20:34.499Z,23.34
2022-08-07T00:23:02.910Z,23.38
2022-08-07T00:25:37.560Z,23.46
2022-08-07T00:28:10.677Z,23.66
2022-08-07T00:30:38.758Z,23.57
2022-08-07T00:33:08.418Z,23.74
2022-08-07T00:35:36.695Z,23.46
2022-08-07T00:38:04.787Z,23.35
2022-08-07T00:40:39.837Z,23.36
2022-08-07T00:44:00.920Z,23.74
2022-08-07T00:46:02.360Z,23.90
2022-08-07T00:48:35.299Z,23.70
2022-08-07T00:51:03.135Z,23.73
2022-08-07T00:53:39.229Z,23.63
2022-08-07T00:56:18.787Z,23.56
2022-08-07T00:58:50.018Z,23.57
2022-08-07T01:01:18.114Z,23.73
2022-08-07T01:03:56.860Z,23.31
2022-08-07T01:06:28.900Z,23.51
2022-08-07T01:08:58.609Z,23.59
2022-08-07T01:12:24.024Z,23.61
2022-08-07T01:14:16.880Z,23.71
2022-08-07T01:16:47.235Z,23.81
2022-08-07T01:19:18.803Z,23.48
2022-08-07T01:21:50.051Z,23.14
2022-08-07T01:24:24.064Z,23.22
2022-08-07T01:26:52.621Z,23.43
2022-08-07T01:29:27.856Z,23.77
2022-08-07T01:31:59.905Z,23.49
2022-08-07T01:34:31.108Z,23.48
2022-08-07T01:37:00.147Z,23.65
2022-08-07T01:39:41.168Z,23.66
2022-08-07T01:42:39.888Z,23.42
2022-08-07T01:45:04.406Z,23.65
2022-08-07T01:48:19.394Z,23.41
2022-08-07T01:50:28.823Z,23.89
2022-08-07T01:52:58.402Z,23.84
2022-08-07T01:55:29.107Z,23.84
2022-08-07T01:58:06.136Z,23.77
2022-08-07T02:00:49.960Z,23.99
2022-08-07T02:03:21.902Z,23.70
2022-08-07T02:05:59.702Z,23.77
2022-08-07T02:08:29.268Z,23.68
2022-08-07T02:11:00.125Z,23.49
2022-08-07T02:13:56.591Z,23.72
2022-08-07T02:16:19.852Z,23.54
2022-08-07T02:18:48.945Z,23.74
2022-08-07T02:21:18.470Z,23.70
2022-08-07T02:23:46.506Z,23.22
2022-08-07T02:26:33.029Z,23.32
2022-08-07T02:29:05.590Z,23.27
2022-08-07T02:31:42.653Z,23.34
2022-08-07T02:34:11.516Z,23.38
2022-08-07T02:36:46.196Z,23.50
2022-08-07T02:39:17.508Z,23.68
2022-08-07T02:42:10.285Z,23.70
2022-08-07T02:44:48.150Z,23.66
2022-08-07T02:47:19.709Z,23.25
2022-08-07T02:50:05.025Z,23.52
2022-08-07T02:52:47.834Z,23.59
2022-08-07T02:55:27.592Z,23.71
2022-08-07T02:57:56.174Z,23.71
2022-08-07T03:00:24.912Z,23.68
2022-08-07T03:02:55.408Z,23.46
2022-08-07T03:05:24.766Z,23.52
2022-08-07T03:08:05.262Z,23.57
2022-08-07T03:10:40.623Z,23.58
2022-08-07T03:13:19.788Z,23.32
2022-08-07T03:15:56.290Z,23.62
2022-08-07T03:18:34.643Z,23.61
2022-08-07T03:21:08.603Z,23.46
2022-08-07T03:24:18.159Z,23.49
2022-08-07T03:26:29.074Z,23.39
2022-08-07T03:28:57.485Z,23.40
2022-08-07T03:31:42.422Z,23.34
2022-08-07T03:34:18.696Z,23.40
2022-08-07T03:36:51.082Z,23.51
2022-08-07T03:39:46.570Z,23.46
2022-08-07T03:42:06.551Z,23.52
2022-08-07T03:44:35.202Z,23.53
2022-08-07T03:47:10.735Z,23.65
2022-08-07T03:49:39.551Z,23.62
2022-08-07T03:52:22.331Z,23.49
2022-08-07T03:54:54.868Z,23.61
2022-08-07T03:58:33.262Z,23.68
2022-08-07T04:00:12.223Z,23.45
2022-08-07T04:02:47.272Z,23.54
2022-08-07T04:05:24.034Z,23.63
2022-08-07T04:07:58.230Z,23.40
2022-08-07T04:10:29.483Z,23.61
2022-08-07T04:12:57.996Z,23.54
2022-08-07T04:15:28.127Z,23.32
2022-08-07T04:18:56.589Z,23.46
2022-08-07T04:20:54.650Z,23.46
2022-08-07T04:23:24.902Z,23.32
2022-08-07T04:26:12.081Z,23.34
2022-08-07T04:28:45.219Z,23.18
2022-08-07T04:31:19.767Z,23.19
2022-08-07T04:33:55.062Z,23.24
2022-08-07T04:36:26.425Z,23.15
2022-08-07T04:38:55.306Z,23.40
2022-08-07T04:41:24.430Z,23.29
2022-08-07T04:44:12.139Z,23.38
2022-08-07T04:47:04.387Z,23.40
2022-08-07T04:49:37.711Z,23.21
2022-08-07T04:52:26.448Z,23.23
2022-08-07T04:55:00.489Z,23.31
2022-08-07T04:58:09.598Z,23.05
2022-08-07T05:00:43.386Z,23.27
2022-08-07T05:04:00.936Z,23.34
2022-08-07T05:06:42.957Z,23.40
2022-08-07T05:09:45.973Z,23.34
2022-08-07T05:12:27.334Z,23.50
2022-08-07T05:15:04.087Z,23.67
2022-08-07T05:17:50.355Z,23.40
2022-08-07T05:20:25.722Z,23.13
2022-08-07T05:22:56.002Z,23.65
2022-08-07T05:25:25.884Z,23.44
2022-08-07T05:28:20.004Z,23.54
2022-08-07T05:30:50.114Z,23.66
2022-08-07T05:33:21.651Z,23.82
2022-08-07T05:35:50.730Z,23.66
2022-08-07T05:38:59.954Z,23.81
2022-08-07T05:41:14.114Z,24.05
2022-08-07T05:44:01.324Z,24.08
2022-08-07T05:46:36.689Z,24.18
2022-08-07T05:49:12.059Z,24.28
2022-08-07T05:51:46.363Z,24.21
2022-08-07T05:54:44.524Z,24.22
2022-08-07T05:57:10.095Z,24.17
2022-08-07T05:59:57.422Z,24.13
2022-08-07T06:02:29.209Z,24.36
2022-08-07T06:05:06.252Z,24.38
2022-08-07T06:08:13.170Z,24.57
2022-08-07T06:10:23.604Z,24.70
2022-08-07T06:12:52.054Z,24.84
2022-08-07T06:15:21.454Z,24.92
2022-08-07T06:17:53.880Z,25.04
2022-08-07T06:23:46.373Z,25.16
2022-08-07T06:25:54.666Z,25.22
2022-08-07T06:28:27.147Z,25.00
2022-08-07T06:30:58.358Z,25.10
2022-08-07T06:33:34.011Z,25.15
2022-08-07T06:36:13.799Z,25.03
2022-08-07T06:38:58.394Z,25.09
2022-08-07T06:42:00.503Z,25.38
2022-08-07T06:44:16.400Z,25.25
2022-08-07T06:46:53.763Z,25.14
2022-08-07T06:49:33.939Z,25.07
2022-08-07T06:52:31.628Z,25.00
2022-08-07T06:55:33.576Z,24.98
2022-08-07T06:57:59.203Z,24.83
2022-08-07T07:00:35.035Z,24.85
2022-08-07T07:03:10.920Z,24.79
2022-08-07T07:06:02.626Z,24.77
2022-08-07T07:08:46.452Z,24.90
2022-08-07T07:12:07.848Z,25.02
2022-08-07T07:14:08.336Z,24.84
2022-08-07T07:16:50.605Z,25.12
2022-08-07T07:19:56.579Z,25.19
2022-08-07T07:22:35.703Z,25.02
2022-08-07T07:26:30.844Z,24.86
2022-08-07T07:28:29.955Z,25.03
2022-08-07T07:31:17.112Z,25.15
2022-08-07T07:33:54.919Z,25.26
2022-08-07T07:36:32.662Z,25.46
2022-08-07T07:39:01.708Z,25.35
2022-08-07T07:41:50.736Z,25.20
2022-08-07T07:44:26.158Z,25.39
2022-08-07T07:47:04.402Z,25.45
2022-08-07T07:50:36.040Z,25.90
2022-08-07T07:52:32.583Z,26.25
2022-08-07T07:55:01.179Z,26.23
2022-08-07T07:57:50.465Z,26.53
2022-08-07T08:00:31.266Z,26.48
2022-08-07T08:03:07.141Z,26.64
2022-08-07T08:05:43.233Z,26.62
2022-08-07T08:08:36.880Z,26.58
2022-08-07T08:11:16.592Z,26.55
2022-08-07T08:13:57.268Z,26.48
2022-08-07T08:16:40.190Z,26.69
2022-08-07T08:19:17.935Z,26.88
2022-08-07T08:22:34.213Z,26.81
2022-08-07T08:25:25.046Z,27.11
2022-08-07T08:28:23.937Z,26.93
2022-08-07T08:31:14.819Z,27.30
2022-08-07T08:33:49.764Z,27.57
2022-08-07T08:36:30.089Z,27.41
2022-08-07T08:39:03.145Z,28.03
2022-08-07T08:41:58.565Z,27.75
2022-08-07T08:44:44.316Z,27.92
2022-08-07T08:47:25.620Z,28.19
2022-08-07T08:50:02.619Z,28.26
2022-08-07T08:52:40.843Z,28.63
2022-08-07T08:55:55.266Z,29.06
2022-08-07T08:58:29.750Z,28.79
2022-08-07T09:01:19.200Z,29.10
2022-08-07T09:09:30.033Z,28.96
2022-08-07T09:12:31.284Z,29.18
2022-08-07T09:16:20.667Z,29.59
2022-08-07T09:18:11.529Z,29.32
2022-08-07T09:20:58.007Z,29.21
2022-08-07T09:24:31.343Z,29.12
2022-08-07T09:26:28.203Z,29.45
2022-08-07T09:30:03.525Z,29.88
2022-08-07T09:32:01.524Z,29.62
2022-08-07T09:34:53.899Z,29.77
2022-08-07T09:37:48.239Z,29.75
2022-08-07T09:40:47.121Z,29.97
2022-08-07T09:44:03.298Z,29.99
2022-08-07T09:47:50.660Z,29.73
2022-08-07T09:50:02.148Z,30.14
2022-08-07T09:52:34.633Z,30.35
2022-08-07T09:55:17.296Z,30.34
2022-08-07T09:58:17.684Z,30.13
2022-08-07T10:01:08.253Z,30.05
2022-08-07T10:04:05.725Z,29.42
2022-08-07T10:06:49.206Z,29.61
2022-08-07T10:10:00.044Z,30.09
2022-08-07T10:12:39.630Z,30.04
2022-08-07T10:15:15.493Z,30.27
2022-08-07T10:18:13.139Z,30.19
2022-08-07T10:21:19.847Z,30.26
2022-08-07T10:24:21.565Z,30.38
2022-08-07T10:26:54.289Z,30.44
2022-08-07T10:29:30.149Z,30.34
2022-08-07T10:32:02.077Z,30.14
2022-08-07T10:34:47.383Z,30.55
2022-08-07T10:37:16.734Z,30.90
2022-08-07T10:39:57.577Z,30.54
2022-08-07T10:45:57.229Z,30.76
2022-08-07T10:48:25.561Z,30.56
2022-08-07T10:51:57.222Z,30.33
2022-08-07T10:54:20.353Z,31.04
2022-08-07T10:57:09.384Z,31.05
2022-08-07T10:59:54.085Z,30.50
2022-08-07T11:02:32.952Z,30.57
2022-08-07T11:05:24.330Z,30.64
2022-08-07T11:08:12.563Z,30.99
2022-08-07T11:11:00.251Z,31.34
2022-08-07T11:14:44.577Z,30.90
2022-08-07T11:16:52.865Z,31.48
2022-08-07T11:19:35.676Z,31.90
2022-08-07T11:22:27.335Z,32.24
2022-08-07T11:25:09.180Z,32.14
2022-08-07T11:28:01.646Z,32.40
2022-08-07T11:30:53.027Z,32.01
2022-08-07T11:33:53.795Z,32.10
2022-08-07T11:36:46.743Z,31.97
2022-08-07T11:43:29.582Z,32.16
2022-08-07T11:46:32.142Z,32.10
2022-08-07T11:49:50.458Z,32.78
2022-08-07T11:52:00.887Z,32.68
2022-08-07T11:54:38.972Z,32.62
2022-08-07T12:00:10.778Z,32.25
2022-08-07T12:03:44.833Z,32.16
2022-08-07T12:06:39.959Z,33.23
2022-08-07T12:09:01.492Z,32.84
2022-08-07T12:11:35.182Z,33.04
2022-08-07T12:14:24.783Z,33.71
2022-08-07T12:16:58.920Z,32.97
2022-08-07T12:20:03.212Z,33.02
2022-08-07T12:22:56.367Z,33.29
2022-08-07T12:26:05.700Z,33.25
2022-08-07T12:28:49.859Z,33.62
2022-08-07T12:31:53.395Z,33.67
2022-08-07T12:34:32.120Z,33.35
2022-08-07T12:37:08.635Z,33.67
2022-08-07T12:39:51.114Z,33.56
2022-08-07T12:42:27.797Z,33.87
2022-08-07T12:45:05.805Z,34.00
2022-08-07T12:47:44.482Z,33.72
2022-08-07T12:50:40.222Z,33.95
2022-08-07T12:54:02.713Z,34.28
2022-08-07T12:56:22.749Z,34.07
2022-08-07T12:59:01.397Z,34.33
2022-08-07T13:01:43.214Z,33.97
2022-08-07T13:04:34.558Z,34.18
2022-08-07T13:07:07.077Z,34.23
2022-08-07T13:10:21.532Z,34.50
2022-08-07T13:12:36.421Z,34.61
2022-08-07T13:15:23.612Z,34.65
2022-08-07T13:18:07.527Z,34.59
2022-08-07T13:20:54.285Z,35.09
2022-08-07T13:24:01.729Z,34.97
2022-08-07T13:26:36.481Z,35.10
2022-08-07T13:29:13.831Z,34.88
2022-08-07T13:31:57.274Z,34.97
2022-08-07T13:34:35.732Z,35.13
2022-08-07T13:37:19.897Z,34.87
2022-08-07T13:40:36.702Z,34.41
2022-08-07T13:42:39.925Z,34.12
2022-08-07T13:46:07.057Z,34.00
2022-08-07T13:48:06.241Z,33.62
2022-08-07T13:51:00.645Z,33.45
2022-08-07T13:53:55.172Z,33.30
2022-08-07T13:56:35.548Z,33.44
2022-08-07T13:59:16.315Z,33.67
2022-08-07T14:02:04.603Z,33.96
2022-08-07T14:04:50.311Z,34.29
2022-08-07T14:07:35.275Z,34.38
2022-08-07T14:10:43.596Z,33.54
2022-08-07T14:13:19.206Z,33.89
2022-08-07T14:15:56.992Z,33.71
2022-08-07T14:18:37.658Z,33.54
2022-08-07T14:22:00.458Z,33.72
2022-08-07T14:24:08.929Z,33.61
2022-08-07T14:26:50.733Z,33.34
2022-08-07T14:30:07.940Z,33.19
2022-08-07T14:32:12.383Z,32.98
2022-08-07T14:34:46.252Z,32.85
2022-08-07T14:37:18.222Z,33.18
2022-08-07T14:40:16.565Z,33.05
2022-08-07T14:43:01.483Z,33.16
2022-08-07T14:45:48.717Z,33.21
2022-08-07T14:48:35.211Z,33.13
2022-08-07T14:51:15.929Z,32.92
2022-08-07T14:54:30.952Z,33.18
2022-08-07T14:56:59.208Z,33.42
2022-08-07T15:00:05.000Z,33.20
2022-08-07T15:02:31.860Z,32.64
2022-08-07T15:05:20.501Z,33.12
2022-08-07T15:07:55.215Z,33.23
2022-08-07T15:10:30.032Z,33.15
2022-08-07T15:13:11.640Z,33.11
2022-08-07T15:18:40.248Z,33.06
2022-08-07T15:21:58.772Z,33.21
2022-08-07T15:25:14.122Z,33.32
2022-08-07T15:27:15.529Z,33.21
2022-08-07T15:30:06.943Z,33.20
2022-08-07T15:44:01.839Z,32.55
2022-08-07T15:46:32.348Z,32.66
2022-08-07T15:50:03.507Z,32.15
2022-08-07T15:52:17.164Z,32.13
2022-08-07T15:54:51.403Z,32.47
2022-08-07T15:57:39.883Z,32.53
2022-08-07T16:00:31.620Z,32.53
2022-08-07T16:03:46.124Z,32.46
2022-08-07T16:06:14.259Z,32.34
2022-08-07T16:08:45.636Z,31.90
2022-08-07T16:11:28.793Z,32.31
2022-08-07T16:14:03.644Z,32.31
2022-08-07T16:16:57.055Z,32.37
2022-08-07T16:19:58.941Z,32.37
2022-08-07T16:22:54.333Z,32.19
2022-08-07T16:25:54.169Z,32.26
2022-08-07T16:29:18.500Z,32.21
2022-08-07T16:31:50.973Z,32.39
2022-08-07T16:34:18.313Z,32.23
2022-08-07T16:37:02.014Z,32.08
2022-08-07T16:39:49.322Z,32.24
2022-08-07T16:42:24.497Z,31.98
2022-08-07T16:45:30.986Z,32.13
2022-08-07T16:48:02.563Z,32.10
2022-08-07T16:50:52.767Z,31.98
2022-08-07T16:54:02.166Z,32.05
2022-08-07T16:56:22.173Z,32.04
2022-08-07T16:59:14.537Z,32.00
2022-08-07T17:01:59.594Z,32.10
2022-08-07T17:04:57.739Z,32.18
2022-08-07T17:07:55.046Z,31.97
2022-08-07T17:10:33.843Z,32.06
2022-08-07T17:13:08.368Z,31.68
2022-08-07T17:15:58.572Z,31.99
2022-08-07T17:18:34.267Z,32.07
2022-08-07T17:21:18.906Z,32.14
2022-08-07T17:24:24.987Z,31.97
2022-08-07T17:26:59.357Z,31.98
2022-08-07T17:30:14.632Z,31.90
2022-08-07T17:32:57.863Z,32.07
2022-08-07T17:35:55.164Z,32.16
2022-08-07T17:38:34.179Z,32.11
2022-08-07T17:42:02.295Z,32.03
2022-08-07T17:44:05.813Z,31.91
2022-08-07T17:46:46.354Z,31.86
2022-08-07T17:49:30.204Z,31.78
2022-08-07T17:52:35.969Z,31.66
2022-08-07T17:56:01.334Z,31.68
2022-08-07T17:58:40.436Z,31.54
2022-08-07T18:01:21.448Z,31.30
2022-08-07T18:04:07.190Z,31.44
2022-08-07T18:06:42.993Z,31.29
2022-08-07T18:10:05.710Z,31.23
2022-08-07T18:14:50.366Z,30.95
2022-08-07T18:18:33.083Z,30.85
2022-08-07T18:21:04.366Z,30.85
2022-08-07T18:23:43.262Z,30.67
2022-08-07T18:26:33.530Z,30.85
2022-08-07T18:30:06.394Z,30.87
2022-08-07T18:32:41.693Z,30.94
2022-08-07T18:35:24.163Z,30.89
2022-08-07T18:38:56.626Z,30.91
2022-08-07T18:41:16.845Z,30.80
2022-08-07T18:46:51.313Z,30.66
2022-08-07T18:50:32.401Z,30.58
2022-08-07T18:55:56.242Z,30.60
2022-08-07T18:58:34.979Z,30.57
2022-08-07T19:02:17.050Z,30.46
2022-08-07T19:04:09.631Z,30.39
2022-08-07T19:06:51.246Z,30.62
2022-08-07T19:09:57.129Z,30.18
2022-08-07T19:12:26.491Z,30.25
2022-08-07T19:15:22.857Z,30.05
2022-08-07T19:22:30.868Z,29.68
2022-08-07T19:25:06.652Z,29.49
2022-08-07T19:28:30.838Z,29.21
2022-08-07T19:31:00.839Z,29.40
2022-08-07T19:36:27.834Z,29.76
2022-08-07T19:39:01.746Z,29.58
2022-08-07T19:42:08.568Z,29.68
2022-08-07T19:44:58.899Z,29.57
2022-08-07T19:47:29.526Z,29.32
2022-08-07T19:50:45.345Z,29.33
2022-08-07T19:54:33.607Z,29.11
2022-08-07T19:59:00.375Z,28.93
2022-08-07T20:01:52.745Z,28.68
2022-08-07T20:04:37.534Z,28.57
2022-08-07T20:07:14.290Z,28.58
2022-08-07T20:10:35.274Z,28.66
2022-08-07T20:12:59.075Z,28.60
2022-08-07T20:15:32.979Z,28.70
2022-08-07T20:18:19.918Z,28.62
2022-08-07T20:20:57.317Z,28.42
2022-08-07T20:23:42.947Z,28.33
2022-08-07T20:26:32.055Z,27.99
2022-08-07T20:29:10.528Z,27.96
2022-08-07T20:34:49.751Z,28.26
2022-08-07T20:37:25.695Z,28.14
2022-08-07T20:40:02.774Z,27.99
2022-08-07T20:42:40.187Z,28.03
2022-08-07T20:45:33.436Z,28.21
2022-08-07T20:48:02.356Z,28.31
2022-08-07T20:50:35.380Z,28.35
2022-08-07T20:53:10.308Z,28.43
2022-08-07T20:55:47.669Z,28.26
2022-08-07T20:58:19.546Z,28.39
2022-08-07T21:00:57.888Z,28.42
2022-08-07T21:03:34.528Z,28.26
2022-08-07T21:06:21.603Z,28.28
2022-08-07T21:09:24.592Z,28.48
2022-08-07T21:11:57.367Z,28.04
2022-08-07T21:14:33.039Z,27.48
2022-08-07T21:18:01.928Z,27.60
2022-08-07T21:20:05.807Z,27.49
2022-08-07T21:22:35.035Z,27.45
2022-08-07T21:25:12.933Z,27.50
2022-08-07T21:27:47.172Z,27.49
2022-08-07T21:30:17.229Z,27.28
2022-08-07T21:32:55.755Z,26.95
2022-08-07T21:35:34.743Z,27.02
2022-08-07T21:38:39.557Z,27.00
2022-08-07T21:41:19.539Z,26.90
2022-08-07T21:43:56.750Z,26.92
2022-08-07T21:46:31.784Z,27.04
2022-08-07T21:49:16.394Z,27.08
2022-08-07T21:51:54.883Z,26.95
2022-08-07T21:54:24.722Z,26.72
2022-08-07T21:57:05.794Z,26.65
2022-08-07T22:00:03.992Z,26.46
2022-08-07T22:02:37.714Z,26.51
2022-08-07T22:05:12.249Z,26.65
2022-08-07T22:07:59.564Z,26.91
2022-08-07T22:10:32.760Z,26.51
2022-08-07T22:13:09.212Z,26.49
2022-08-07T22:16:39.248Z,26.53
2022-08-07T22:18:36.201Z,26.55
2022-08-07T22:21:19.266Z,26.34
2022-08-07T22:24:00.442Z,25.96
2022-08-07T22:26:48.470Z,26.37
2022-08-07T22:29:51.960Z,26.35
2022-08-07T22:32:42.514Z,26.24
2022-08-07T22:35:11.821Z,26.16
2022-08-07T22:38:03.524Z,26.03
2022-08-07T22:40:51.457Z,25.94
2022-08-07T22:43:27.917Z,26.05
2022-08-07T22:46:42.885Z,26.09
2022-08-07T22:48:55.478Z,25.70
2022-08-07T22:51:49.004Z,26.07
2022-08-07T22:54:22.484Z,25.76
2022-08-07T22:56:53.279Z,25.36
2022-08-07T22:59:32.723Z,25.26
2022-08-07T23:02:15.587Z,25.47
2022-08-07T23:06:07.065Z,25.40
2022-08-07T23:07:58.716Z,25.13
2022-08-07T23:10:42.303Z,25.07
2022-08-07T23:13:21.538Z,25.33
2022-08-07T23:16:46.824Z,25.33
2022-08-07T23:19:19.465Z,25.08
2022-08-07T23:22:06.654Z,25.15
2022-08-07T23:24:48.808Z,25.09
2022-08-07T23:27:33.606Z,25.15
2022-08-07T23:30:39.545Z,25.05
2022-08-07T23:34:20.300Z,25.09
2022-08-07T23:36:01.881Z,24.85
2022-08-07T23:38:54.619Z,24.56
2022-08-07T23:42:04.337Z,24.34
2022-08-07T23:44:35.514Z,24.36
2022-08-07T23:47:10.492Z,24.35
2022-08-07T23:49:50.427Z,24.20
2022-08-07T23:53:05.898Z,24.14
2022-08-07T23:55:51.994Z,24.30
2022-08-07T23:58:18.747Z,24.21
